sensor_id;sensor_type;location;lat;lon;timestamp;P1;durP1;ratioP1;P2;durP2;ratioP2
81725;SDS011;71135;16.738;-14.648;2023-07-16T00:01:43;11.98;;;2.47;;
81725;SDS011;71135;16.738;-14.648;2023-07-16T00:04:12;8.07;;;1.42;;
81725;SDS011;71135;16.738;-14.648;2023-07-16T00:06:41;5.57;;;1.42;;
81725;SDS011;71135;16.738;-14.648;2023-07-16T00:09:11;7.90;;;1.73;;
81725;SDS011;71135;16.738;-14.648;2023-07-16T00:11:40;9.00;;;1.95;;
81725;SDS011;71135;16.738;-14.648;2023-07-16T00:14:09;5.93;;;1.35;;
81725;SDS011;71135;16.738;-14.648;2023-07-16T00:16:39;5.97;;;1.50;;
81725;SDS011;71135;16.738;-14.648;2023-07-16T00:19:14;6.00;;;1.42;;
81725;SDS011;71135;16.738;-14.648;2023-07-16T00:21:43;7.88;;;1.55;;
81725;SDS011;71135;16.738;-14.648;2023-07-16T00:24:12;3.95;;;1.40;;
81725;SDS011;71135;16.738;-14.648;2023-07-16T00:26:41;9.20;;;1.27;;
81725;SDS011;71135;16.738;-14.648;2023-07-16T00:29:11;4.70;;;1.90;;
81725;SDS011;71135;16.738;-14.648;2023-07-16T00:31:40;7.07;;;1.52;;
81725;SDS011;71135;16.738;-14.648;2023-07-16T00:34:12;13.20;;;1.40;;
81725;SDS011;71135;16.738;-14.648;2023-07-16T00:36:41;3.35;;;1.13;;
81725;SDS011;71135;16.738;-14.648;2023-07-16T00:39:11;6.70;;;1.50;;
81725;SDS011;71135;16.738;-14.648;2023-07-16T00:41:40;6.28;;;1.20;;
81725;SDS011;71135;16.738;-14.648;2023-07-16T00:44:10;8.07;;;1.63;;
81725;SDS011;71135;16.738;-14.648;2023-07-16T00:46:39;6.30;;;1.50;;
81725;SDS011;71135;16.738;-14.648;2023-07-16T00:49:08;7.18;;;1.85;;
81725;SDS011;71135;16.738;-14.648;2023-07-16T00:51:40;4.45;;;1.30;;
81725;SDS011;71135;16.738;-14.648;2023-07-16T00:54:11;8.80;;;1.80;;
81725;SDS011;71135;16.738;-14.648;2023-07-16T00:56:41;5.60;;;1.45;;
81725;SDS011;71135;16.738;-14.648;2023-07-16T00:59:10;7.20;;;1.35;;
81725;SDS011;71135;16.738;-14.648;2023-07-16T01:01:39;6.43;;;1.98;;
81725;SDS011;71135;16.738;-14.648;2023-07-16T01:04:09;6.60;;;1.70;;
81725;SDS011;71135;16.738;-14.648;2023-07-16T01:06:41;7.82;;;1.70;;
81725;SDS011;71135;16.738;-14.648;2023-07-16T01:09:15;7.28;;;2.03;;
81725;SDS011;71135;16.738;-14.648;2023-07-16T01:11:45;7.40;;;1.85;;
81725;SDS011;71135;16.738;-14.648;2023-07-16T01:14:16;9.45;;;2.20;;
81725;SDS011;71135;16.738;-14.648;2023-07-16T01:16:46;6.70;;;2.15;;
81725;SDS011;71135;16.738;-14.648;2023-07-16T01:19:19;7.43;;;1.75;;
81725;SDS011;71135;16.738;-14.648;2023-07-16T01:21:50;7.28;;;1.95;;
81725;SDS011;71135;16.738;-14.648;2023-07-16T01:24:42;8.07;;;1.88;;
81725;SDS011;71135;16.738;-14.648;2023-07-16T01:27:47;8.45;;;2.40;;
81725;SDS011;71135;16.738;-14.648;2023-07-16T01:30:30;6.45;;;2.20;;
81725;SDS011;71135;16.738;-14.648;2023-07-16T01:33:00;4.00;;;1.70;;
81725;SDS011;71135;16.738;-14.648;2023-07-16T01:35:31;6.18;;;2.15;;
81725;SDS011;71135;16.738;-14.648;2023-07-16T01:38:01;6.70;;;2.15;;
81725;SDS011;71135;16.738;-14.648;2023-07-16T01:40:31;5.80;;;1.92;;
81725;SDS011;71135;16.738;-14.648;2023-07-16T01:43:00;12.65;;;2.33;;
81725;SDS011;71135;16.738;-14.648;2023-07-16T01:45:32;5.30;;;2.08;;
81725;SDS011;71135;16.738;-14.648;2023-07-16T01:48:05;9.25;;;2.47;;
81725;SDS011;71135;16.738;-14.648;2023-07-16T01:50:42;10.60;;;2.53;;
81725;SDS011;71135;16.738;-14.648;2023-07-16T01:53:12;5.28;;;1.85;;
81725;SDS011;71135;16.738;-14.648;2023-07-16T01:55:41;8.25;;;3.05;;
81725;SDS011;71135;16.738;-14.648;2023-07-16T01:58:10;10.07;;;2.40;;
81725;SDS011;71135;16.738;-14.648;2023-07-16T02:00:42;8.43;;;2.65;;
81725;SDS011;71135;16.738;-14.648;2023-07-16T02:03:13;7.43;;;2.30;;
81725;SDS011;71135;16.738;-14.648;2023-07-16T02:05:43;11.80;;;2.28;;
81725;SDS011;71135;16.738;-14.648;2023-07-16T02:08:12;7.25;;;2.38;;
81725;SDS011;71135;16.738;-14.648;2023-07-16T02:10:42;9.05;;;2.60;;
81725;SDS011;71135;16.738;-14.648;2023-07-16T02:13:11;5.93;;;2.30;;
81725;SDS011;71135;16.738;-14.648;2023-07-16T02:15:43;7.88;;;2.45;;
81725;SDS011;71135;16.738;-14.648;2023-07-16T02:18:14;6.97;;;2.53;;
81725;SDS011;71135;16.738;-14.648;2023-07-16T02:20:43;7.20;;;3.08;;
81725;SDS011;71135;16.738;-14.648;2023-07-16T02:23:13;7.13;;;2.90;;
81725;SDS011;71135;16.738;-14.648;2023-07-16T02:25:42;7.07;;;3.28;;
81725;SDS011;71135;16.738;-14.648;2023-07-16T02:28:11;9.45;;;2.80;;
81725;SDS011;71135;16.738;-14.648;2023-07-16T02:30:43;6.55;;;2.75;;
81725;SDS011;71135;16.738;-14.648;2023-07-16T02:33:12;8.55;;;2.83;;
81725;SDS011;71135;16.738;-14.648;2023-07-16T02:35:45;9.07;;;3.50;;
81725;SDS011;71135;16.738;-14.648;2023-07-16T02:38:17;9.20;;;2.85;;
81725;SDS011;71135;16.738;-14.648;2023-07-16T02:40:48;9.65;;;2.95;;
81725;SDS011;71135;16.738;-14.648;2023-07-16T02:43:17;10.93;;;3.10;;
81725;SDS011;71135;16.738;-14.648;2023-07-16T02:45:49;9.15;;;2.85;;
81725;SDS011;71135;16.738;-14.648;2023-07-16T02:48:18;9.02;;;3.33;;
81725;SDS011;71135;16.738;-14.648;2023-07-16T02:50:47;10.32;;;3.22;;
81725;SDS011;71135;16.738;-14.648;2023-07-16T02:53:17;9.40;;;3.25;;
81725;SDS011;71135;16.738;-14.648;2023-07-16T02:55:46;8.90;;;4.68;;
81725;SDS011;71135;16.738;-14.648;2023-07-16T02:58:15;12.85;;;3.25;;
81725;SDS011;71135;16.738;-14.648;2023-07-16T03:00:45;13.75;;;3.85;;
81725;SDS011;71135;16.738;-14.648;2023-07-16T03:03:16;8.45;;;3.55;;
81725;SDS011;71135;16.738;-14.648;2023-07-16T03:05:45;8.98;;;2.40;;
81725;SDS011;71135;16.738;-14.648;2023-07-16T03:08:17;12.18;;;4.07;;
81725;SDS011;71135;16.738;-14.648;2023-07-16T03:10:46;12.82;;;4.32;;
81725;SDS011;71135;16.738;-14.648;2023-07-16T03:13:15;11.05;;;3.53;;
81725;SDS011;71135;16.738;-14.648;2023-07-16T03:15:45;9.38;;;3.78;;
81725;SDS011;71135;16.738;-14.648;2023-07-16T03:18:17;8.20;;;3.05;;
81725;SDS011;71135;16.738;-14.648;2023-07-16T03:20:47;10.00;;;3.85;;
81725;SDS011;71135;16.738;-14.648;2023-07-16T03:23:16;11.63;;;3.72;;
81725;SDS011;71135;16.738;-14.648;2023-07-16T03:25:46;13.00;;;3.85;;
81725;SDS011;71135;16.738;-14.648;2023-07-16T03:28:15;8.23;;;2.97;;
81725;SDS011;71135;16.738;-14.648;2023-07-16T03:30:46;10.90;;;3.67;;
81725;SDS011;71135;16.738;-14.648;2023-07-16T03:33:18;8.40;;;3.33;;
81725;SDS011;71135;16.738;-14.648;2023-07-16T03:35:48;8.90;;;4.07;;
81725;SDS011;71135;16.738;-14.648;2023-07-16T03:38:19;8.95;;;3.50;;
81725;SDS011;71135;16.738;-14.648;2023-07-16T03:40:48;14.57;;;4.00;;
81725;SDS011;71135;16.738;-14.648;2023-07-16T03:43:18;11.13;;;3.53;;
81725;SDS011;71135;16.738;-14.648;2023-07-16T03:45:49;7.88;;;3.40;;
81725;SDS011;71135;16.738;-14.648;2023-07-16T03:48:21;10.98;;;3.50;;
81725;SDS011;71135;16.738;-14.648;2023-07-16T03:50:50;11.32;;;3.72;;
81725;SDS011;71135;16.738;-14.648;2023-07-16T03:53:20;11.88;;;3.42;;
81725;SDS011;71135;16.738;-14.648;2023-07-16T03:55:50;10.63;;;3.35;;
81725;SDS011;71135;16.738;-14.648;2023-07-16T03:58:19;9.52;;;3.67;;
81725;SDS011;71135;16.738;-14.648;2023-07-16T04:00:48;9.27;;;3.22;;
81725;SDS011;71135;16.738;-14.648;2023-07-16T04:03:18;10.55;;;3.50;;
81725;SDS011;71135;16.738;-14.648;2023-07-16T04:05:49;12.68;;;3.53;;
81725;SDS011;71135;16.738;-14.648;2023-07-16T04:08:19;7.45;;;2.95;;
81725;SDS011;71135;16.738;-14.648;2023-07-16T04:10:48;8.18;;;3.25;;
81725;SDS011;71135;16.738;-14.648;2023-07-16T04:13:17;10.90;;;4.13;;
81725;SDS011;71135;16.738;-14.648;2023-07-16T04:15:46;8.55;;;3.38;;
81725;SDS011;71135;16.738;-14.648;2023-07-16T04:18:15;9.50;;;2.70;;
81725;SDS011;71135;16.738;-14.648;2023-07-16T04:20:47;8.60;;;3.00;;
81725;SDS011;71135;16.738;-14.648;2023-07-16T04:23:16;7.97;;;3.08;;
81725;SDS011;71135;16.738;-14.648;2023-07-16T04:25:46;13.48;;;3.30;;
81725;SDS011;71135;16.738;-14.648;2023-07-16T04:28:19;8.50;;;2.88;;
81725;SDS011;71135;16.738;-14.648;2023-07-16T04:31:05;9.10;;;2.83;;
81725;SDS011;71135;16.738;-14.648;2023-07-16T04:33:34;8.85;;;3.42;;
81725;SDS011;71135;16.738;-14.648;2023-07-16T04:36:06;10.82;;;3.90;;
81725;SDS011;71135;16.738;-14.648;2023-07-16T04:38:35;9.27;;;2.75;;
81725;SDS011;71135;16.738;-14.648;2023-07-16T04:41:04;11.30;;;3.10;;
81725;SDS011;71135;16.738;-14.648;2023-07-16T04:43:33;7.65;;;2.83;;
81725;SDS011;71135;16.738;-14.648;2023-07-16T04:46:02;9.15;;;4.20;;
81725;SDS011;71135;16.738;-14.648;2023-07-16T04:48:31;8.90;;;3.03;;
81725;SDS011;71135;16.738;-14.648;2023-07-16T04:51:01;9.07;;;2.92;;
81725;SDS011;71135;16.738;-14.648;2023-07-16T04:53:32;9.65;;;3.03;;
81725;SDS011;71135;16.738;-14.648;2023-07-16T04:56:02;8.85;;;2.92;;
81725;SDS011;71135;16.738;-14.648;2023-07-16T04:58:35;5.75;;;3.28;;
81725;SDS011;71135;16.738;-14.648;2023-07-16T05:01:05;7.88;;;3.35;;
81725;SDS011;71135;16.738;-14.648;2023-07-16T05:03:36;12.25;;;3.72;;
81725;SDS011;71135;16.738;-14.648;2023-07-16T05:06:05;7.70;;;3.28;;
81725;SDS011;71135;16.738;-14.648;2023-07-16T05:08:37;9.50;;;3.65;;
81725;SDS011;71135;16.738;-14.648;2023-07-16T05:11:06;9.05;;;3.95;;
81725;SDS011;71135;16.738;-14.648;2023-07-16T05:13:35;8.85;;;3.67;;
81725;SDS011;71135;16.738;-14.648;2023-07-16T05:16:05;7.60;;;3.75;;
81725;SDS011;71135;16.738;-14.648;2023-07-16T05:18:34;15.18;;;4.35;;
81725;SDS011;71135;16.738;-14.648;2023-07-16T05:21:03;10.48;;;3.90;;
81725;SDS011;71135;16.738;-14.648;2023-07-16T05:23:32;9.15;;;3.72;;
81725;SDS011;71135;16.738;-14.648;2023-07-16T05:26:04;10.15;;;4.30;;
81725;SDS011;71135;16.738;-14.648;2023-07-16T05:28:33;8.98;;;3.72;;
81725;SDS011;71135;16.738;-14.648;2023-07-16T05:31:02;7.90;;;3.83;;
81725;SDS011;71135;16.738;-14.648;2023-07-16T05:33:32;9.07;;;3.80;;
81725;SDS011;71135;16.738;-14.648;2023-07-16T05:36:01;12.80;;;3.33;;
81725;SDS011;71135;16.738;-14.648;2023-07-16T05:38:30;14.23;;;4.25;;
81725;SDS011;71135;16.738;-14.648;2023-07-16T05:41:00;8.07;;;3.60;;
81725;SDS011;71135;16.738;-14.648;2023-07-16T05:43:32;9.95;;;3.47;;
81725;SDS011;71135;16.738;-14.648;2023-07-16T05:46:01;13.75;;;3.78;;
81725;SDS011;71135;16.738;-14.648;2023-07-16T05:48:31;8.65;;;3.60;;
81725;SDS011;71135;16.738;-14.648;2023-07-16T05:51:00;10.77;;;4.00;;
81725;SDS011;71135;16.738;-14.648;2023-07-16T05:53:29;9.85;;;3.85;;
81725;SDS011;71135;16.738;-14.648;2023-07-16T05:55:58;7.85;;;3.78;;
81725;SDS011;71135;16.738;-14.648;2023-07-16T05:58:30;7.13;;;3.58;;
81725;SDS011;71135;16.738;-14.648;2023-07-16T06:00:59;8.85;;;3.80;;
81725;SDS011;71135;16.738;-14.648;2023-07-16T06:03:28;8.05;;;3.63;;
81725;SDS011;71135;16.738;-14.648;2023-07-16T06:05:57;11.02;;;3.97;;
81725;SDS011;71135;16.738;-14.648;2023-07-16T06:08:26;7.97;;;3.20;;
81725;SDS011;71135;16.738;-14.648;2023-07-16T06:10:55;9.88;;;4.07;;
81725;SDS011;71135;16.738;-14.648;2023-07-16T06:13:25;10.27;;;4.07;;
81725;SDS011;71135;16.738;-14.648;2023-07-16T06:15:56;8.18;;;3.65;;
81725;SDS011;71135;16.738;-14.648;2023-07-16T06:18:26;10.65;;;3.85;;
81725;SDS011;71135;16.738;-14.648;2023-07-16T06:20:55;8.57;;;3.80;;
81725;SDS011;71135;16.738;-14.648;2023-07-16T06:23:24;10.98;;;4.10;;
81725;SDS011;71135;16.738;-14.648;2023-07-16T06:25:54;8.15;;;3.90;;
81725;SDS011;71135;16.738;-14.648;2023-07-16T06:28:23;9.73;;;4.00;;
81725;SDS011;71135;16.738;-14.648;2023-07-16T06:30:52;9.45;;;3.38;;
81725;SDS011;71135;16.738;-14.648;2023-07-16T06:33:24;7.10;;;3.60;;
81725;SDS011;71135;16.738;-14.648;2023-07-16T06:35:54;12.98;;;3.70;;
81725;SDS011;71135;16.738;-14.648;2023-07-16T06:38:23;7.82;;;3.65;;
81725;SDS011;71135;16.738;-14.648;2023-07-16T06:40:53;8.43;;;4.03;;
81725;SDS011;71135;16.738;-14.648;2023-07-16T06:43:22;7.50;;;3.42;;
81725;SDS011;71135;16.738;-14.648;2023-07-16T06:45:51;9.00;;;3.95;;
81725;SDS011;71135;16.738;-14.648;2023-07-16T06:48:20;8.38;;;3.90;;
81725;SDS011;71135;16.738;-14.648;2023-07-16T06:50:52;8.45;;;3.53;;
81725;SDS011;71135;16.738;-14.648;2023-07-16T06:53:22;10.70;;;4.00;;
81725;SDS011;71135;16.738;-14.648;2023-07-16T06:55:51;8.20;;;3.70;;
81725;SDS011;71135;16.738;-14.648;2023-07-16T06:58:24;8.77;;;3.35;;
81725;SDS011;71135;16.738;-14.648;2023-07-16T07:01:00;8.38;;;3.03;;
81725;SDS011;71135;16.738;-14.648;2023-07-16T07:03:32;9.57;;;3.80;;
81725;SDS011;71135;16.738;-14.648;2023-07-16T07:06:01;9.23;;;3.63;;
81725;SDS011;71135;16.738;-14.648;2023-07-16T07:08:31;6.70;;;3.42;;
81725;SDS011;71135;16.738;-14.648;2023-07-16T07:11:00;9.32;;;4.18;;
81725;SDS011;71135;16.738;-14.648;2023-07-16T07:13:30;8.35;;;3.80;;
81725;SDS011;71135;16.738;-14.648;2023-07-16T07:15:59;8.73;;;4.20;;
81725;SDS011;71135;16.738;-14.648;2023-07-16T07:18:28;8.20;;;4.05;;
81725;SDS011;71135;16.738;-14.648;2023-07-16T07:21:00;8.32;;;4.03;;
81725;SDS011;71135;16.738;-14.648;2023-07-16T07:23:29;6.10;;;3.70;;
81725;SDS011;71135;16.738;-14.648;2023-07-16T07:25:58;10.13;;;3.75;;
81725;SDS011;71135;16.738;-14.648;2023-07-16T07:28:28;10.82;;;4.03;;
81725;SDS011;71135;16.738;-14.648;2023-07-16T07:30:57;11.27;;;4.57;;
81725;SDS011;71135;16.738;-14.648;2023-07-16T07:33:27;10.20;;;4.65;;
81725;SDS011;71135;16.738;-14.648;2023-07-16T07:36:00;11.65;;;4.40;;
81725;SDS011;71135;16.738;-14.648;2023-07-16T07:38:30;10.45;;;4.30;;
81725;SDS011;71135;16.738;-14.648;2023-07-16T07:40:59;12.77;;;3.88;;
81725;SDS011;71135;16.738;-14.648;2023-07-16T07:43:28;9.50;;;4.18;;
81725;SDS011;71135;16.738;-14.648;2023-07-16T07:45:57;8.88;;;4.40;;
81725;SDS011;71135;16.738;-14.648;2023-07-16T07:48:26;9.95;;;4.32;;
81725;SDS011;71135;16.738;-14.648;2023-07-16T07:50:55;12.88;;;4.57;;
81725;SDS011;71135;16.738;-14.648;2023-07-16T07:53:27;7.85;;;3.97;;
81725;SDS011;71135;16.738;-14.648;2023-07-16T07:55:56;13.48;;;3.70;;
81725;SDS011;71135;16.738;-14.648;2023-07-16T07:58:26;7.30;;;3.53;;
81725;SDS011;71135;16.738;-14.648;2023-07-16T08:00:55;9.55;;;4.20;;
81725;SDS011;71135;16.738;-14.648;2023-07-16T08:03:24;10.88;;;4.05;;
81725;SDS011;71135;16.738;-14.648;2023-07-16T08:05:53;9.60;;;3.80;;
81725;SDS011;71135;16.738;-14.648;2023-07-16T08:08:22;9.93;;;4.45;;
81725;SDS011;71135;16.738;-14.648;2023-07-16T08:10:55;10.65;;;4.25;;
81725;SDS011;71135;16.738;-14.648;2023-07-16T08:16:39;8.32;;;3.40;;
81725;SDS011;71135;16.738;-14.648;2023-07-16T08:20:00;10.35;;;4.13;;
81725;SDS011;71135;16.738;-14.648;2023-07-16T08:25:39;8.68;;;4.05;;
81725;SDS011;71135;16.738;-14.648;2023-07-16T08:28:24;9.85;;;3.90;;
81725;SDS011;71135;16.738;-14.648;2023-07-16T08:31:12;8.85;;;3.90;;
81725;SDS011;71135;16.738;-14.648;2023-07-16T08:34:45;10.48;;;3.75;;
81725;SDS011;71135;16.738;-14.648;2023-07-16T08:37:20;11.27;;;4.00;;
81725;SDS011;71135;16.738;-14.648;2023-07-16T08:40:23;10.02;;;4.15;;
81725;SDS011;71135;16.738;-14.648;2023-07-16T08:46:38;10.23;;;4.43;;
81725;SDS011;71135;16.738;-14.648;2023-07-16T08:49:17;8.70;;;4.25;;
81725;SDS011;71135;16.738;-14.648;2023-07-16T08:51:58;7.72;;;4.15;;
81725;SDS011;71135;16.738;-14.648;2023-07-16T08:58:45;10.35;;;3.95;;
81725;SDS011;71135;16.738;-14.648;2023-07-16T09:12:59;11.45;;;5.00;;
81725;SDS011;71135;16.738;-14.648;2023-07-16T09:16:53;10.63;;;4.45;;
81725;SDS011;71135;16.738;-14.648;2023-07-16T09:19:44;11.27;;;5.38;;
81725;SDS011;71135;16.738;-14.648;2023-07-16T10:13:34;13.68;;;4.35;;
81725;SDS011;71135;16.738;-14.648;2023-07-16T10:23:09;7.50;;;4.15;;
81725;SDS011;71135;16.738;-14.648;2023-07-16T10:26:09;10.45;;;4.60;;
81725;SDS011;71135;16.738;-14.648;2023-07-16T10:29:09;11.80;;;3.65;;
81725;SDS011;71135;16.738;-14.648;2023-07-16T10:46:36;8.05;;;3.85;;
81725;SDS011;71135;16.738;-14.648;2023-07-16T10:49:44;9.00;;;3.80;;
81725;SDS011;71135;16.738;-14.648;2023-07-16T10:52:58;12.23;;;4.20;;
81725;SDS011;71135;16.738;-14.648;2023-07-16T10:55:51;8.65;;;3.53;;
81725;SDS011;71135;16.738;-14.648;2023-07-16T10:58:48;7.38;;;2.97;;
81725;SDS011;71135;16.738;-14.648;2023-07-16T11:01:23;7.78;;;3.72;;
81725;SDS011;71135;16.738;-14.648;2023-07-16T11:04:16;7.35;;;3.20;;
81725;SDS011;71135;16.738;-14.648;2023-07-16T11:07:03;5.93;;;3.13;;
81725;SDS011;71135;16.738;-14.648;2023-07-16T11:16:15;7.60;;;3.08;;
81725;SDS011;71135;16.738;-14.648;2023-07-16T11:22:13;6.25;;;3.20;;
81725;SDS011;71135;16.738;-14.648;2023-07-16T11:24:54;8.73;;;3.42;;
81725;SDS011;71135;16.738;-14.648;2023-07-16T11:27:26;6.57;;;3.30;;
81725;SDS011;71135;16.738;-14.648;2023-07-16T11:30:27;7.82;;;3.40;;
81725;SDS011;71135;16.738;-14.648;2023-07-16T11:33:15;6.93;;;3.90;;
81725;SDS011;71135;16.738;-14.648;2023-07-16T11:35:48;8.38;;;3.45;;
81725;SDS011;71135;16.738;-14.648;2023-07-16T11:38:23;5.72;;;3.17;;
81725;SDS011;71135;16.738;-14.648;2023-07-16T11:40:52;6.30;;;3.20;;
81725;SDS011;71135;16.738;-14.648;2023-07-16T11:46:14;4.85;;;3.08;;
81725;SDS011;71135;16.738;-14.648;2023-07-16T11:48:44;9.90;;;3.20;;
81725;SDS011;71135;16.738;-14.648;2023-07-16T11:51:16;7.13;;;2.95;;
81725;SDS011;71135;16.738;-14.648;2023-07-16T11:53:45;7.93;;;3.13;;
81725;SDS011;71135;16.738;-14.648;2023-07-16T11:56:15;6.18;;;3.10;;
81725;SDS011;71135;16.738;-14.648;2023-07-16T11:58:44;7.15;;;2.75;;
81725;SDS011;71135;16.738;-14.648;2023-07-16T12:01:13;7.13;;;2.53;;
81725;SDS011;71135;16.738;-14.648;2023-07-16T12:03:43;7.07;;;2.92;;
81725;SDS011;71135;16.738;-14.648;2023-07-16T12:06:12;5.05;;;2.75;;
81725;SDS011;71135;16.738;-14.648;2023-07-16T12:08:44;8.02;;;2.83;;
81725;SDS011;71135;16.738;-14.648;2023-07-16T12:11:13;5.60;;;2.85;;
81725;SDS011;71135;16.738;-14.648;2023-07-16T12:13:42;6.70;;;3.08;;
81725;SDS011;71135;16.738;-14.648;2023-07-16T12:16:11;4.90;;;2.60;;
81725;SDS011;71135;16.738;-14.648;2023-07-16T12:18:40;5.88;;;3.17;;
81725;SDS011;71135;16.738;-14.648;2023-07-16T12:21:09;8.02;;;2.17;;
81725;SDS011;71135;16.738;-14.648;2023-07-16T12:23:39;5.63;;;2.28;;
81725;SDS011;71135;16.738;-14.648;2023-07-16T12:26:10;6.03;;;2.55;;
81725;SDS011;71135;16.738;-14.648;2023-07-16T12:28:40;4.20;;;1.90;;
81725;SDS011;71135;16.738;-14.648;2023-07-16T12:31:09;5.30;;;2.22;;
81725;SDS011;71135;16.738;-14.648;2023-07-16T12:33:38;6.95;;;2.47;;
81725;SDS011;71135;16.738;-14.648;2023-07-16T12:36:07;6.60;;;2.30;;
81725;SDS011;71135;16.738;-14.648;2023-07-16T12:38:37;6.88;;;2.35;;
81725;SDS011;71135;16.738;-14.648;2023-07-16T12:41:06;5.57;;;2.10;;
81725;SDS011;71135;16.738;-14.648;2023-07-16T12:43:38;4.57;;;1.83;;
81725;SDS011;71135;16.738;-14.648;2023-07-16T12:46:07;4.65;;;2.03;;
81725;SDS011;71135;16.738;-14.648;2023-07-16T12:48:37;11.93;;;2.22;;
81725;SDS011;71135;16.738;-14.648;2023-07-16T12:51:06;7.32;;;1.95;;
81725;SDS011;71135;16.738;-14.648;2023-07-16T12:53:35;5.97;;;1.88;;
81725;SDS011;71135;16.738;-14.648;2023-07-16T12:56:05;5.25;;;1.80;;
81725;SDS011;71135;16.738;-14.648;2023-07-16T12:58:34;4.15;;;1.90;;
81725;SDS011;71135;16.738;-14.648;2023-07-16T13:01:06;7.30;;;1.67;;
81725;SDS011;71135;16.738;-14.648;2023-07-16T13:03:36;4.35;;;1.73;;
81725;SDS011;71135;16.738;-14.648;2023-07-16T13:06:05;8.60;;;1.95;;
81725;SDS011;71135;16.738;-14.648;2023-07-16T13:08:34;4.72;;;1.77;;
81725;SDS011;71135;16.738;-14.648;2023-07-16T13:11:03;9.18;;;1.70;;
81725;SDS011;71135;16.738;-14.648;2023-07-16T13:13:32;7.50;;;1.60;;
81725;SDS011;71135;16.738;-14.648;2023-07-16T13:16:01;4.50;;;1.27;;
81725;SDS011;71135;16.738;-14.648;2023-07-16T13:18:33;8.60;;;1.48;;
81725;SDS011;71135;16.738;-14.648;2023-07-16T13:21:02;6.80;;;1.33;;
81725;SDS011;71135;16.738;-14.648;2023-07-16T13:23:32;6.70;;;1.80;;
81725;SDS011;71135;16.738;-14.648;2023-07-16T13:26:02;5.05;;;1.23;;
81725;SDS011;71135;16.738;-14.648;2023-07-16T13:28:31;6.25;;;1.60;;
81725;SDS011;71135;16.738;-14.648;2023-07-16T13:31:00;5.03;;;1.83;;
81725;SDS011;71135;16.738;-14.648;2023-07-16T13:33:29;5.90;;;1.60;;
81725;SDS011;71135;16.738;-14.648;2023-07-16T13:36:01;5.35;;;1.38;;
81725;SDS011;71135;16.738;-14.648;2023-07-16T13:38:30;8.52;;;1.40;;
81725;SDS011;71135;16.738;-14.648;2023-07-16T13:41:00;7.25;;;2.08;;
81725;SDS011;71135;16.738;-14.648;2023-07-16T13:43:31;10.70;;;2.03;;
81725;SDS011;71135;16.738;-14.648;2023-07-16T13:46:00;5.75;;;1.33;;
81725;SDS011;71135;16.738;-14.648;2023-07-16T13:48:30;7.90;;;1.95;;
81725;SDS011;71135;16.738;-14.648;2023-07-16T13:51:02;8.32;;;1.23;;
81725;SDS011;71135;16.738;-14.648;2023-07-16T13:53:31;5.45;;;1.00;;
81725;SDS011;71135;16.738;-14.648;2023-07-16T13:56:00;8.68;;;1.20;;
81725;SDS011;71135;16.738;-14.648;2023-07-16T13:58:30;9.63;;;1.45;;
81725;SDS011;71135;16.738;-14.648;2023-07-16T14:01:02;8.90;;;1.33;;
81725;SDS011;71135;16.738;-14.648;2023-07-16T14:03:50;12.82;;;1.85;;
81725;SDS011;71135;16.738;-14.648;2023-07-16T14:10:16;8.25;;;1.73;;
81725;SDS011;71135;16.738;-14.648;2023-07-16T14:12:46;7.35;;;1.00;;
81725;SDS011;71135;16.738;-14.648;2023-07-16T14:15:15;9.18;;;1.63;;
81725;SDS011;71135;16.738;-14.648;2023-07-16T14:17:44;5.55;;;1.08;;
81725;SDS011;71135;16.738;-14.648;2023-07-16T14:20:52;10.35;;;1.77;;
81725;SDS011;71135;16.738;-14.648;2023-07-16T14:23:22;7.53;;;1.20;;
81725;SDS011;71135;16.738;-14.648;2023-07-16T14:26:07;7.78;;;1.38;;
81725;SDS011;71135;16.738;-14.648;2023-07-16T14:28:46;3.70;;;0.90;;
81725;SDS011;71135;16.738;-14.648;2023-07-16T14:31:17;9.18;;;1.30;;
81725;SDS011;71135;16.738;-14.648;2023-07-16T14:33:46;5.57;;;1.00;;
81725;SDS011;71135;16.738;-14.648;2023-07-16T14:36:16;8.15;;;1.55;;
81725;SDS011;71135;16.738;-14.648;2023-07-16T14:38:45;7.32;;;1.50;;
81725;SDS011;71135;16.738;-14.648;2023-07-16T14:41:17;11.07;;;1.65;;
81725;SDS011;71135;16.738;-14.648;2023-07-16T14:43:46;3.88;;;1.15;;
81725;SDS011;71135;16.738;-14.648;2023-07-16T14:46:16;7.68;;;1.38;;
81725;SDS011;71135;16.738;-14.648;2023-07-16T14:48:46;7.28;;;1.10;;
81725;SDS011;71135;16.738;-14.648;2023-07-16T14:51:17;8.23;;;1.10;;
81725;SDS011;71135;16.738;-14.648;2023-07-16T14:53:47;6.20;;;1.20;;
81725;SDS011;71135;16.738;-14.648;2023-07-16T14:56:19;8.38;;;1.52;;
81725;SDS011;71135;16.738;-14.648;2023-07-16T14:58:48;10.23;;;1.15;;
81725;SDS011;71135;16.738;-14.648;2023-07-16T15:01:17;10.82;;;1.52;;
81725;SDS011;71135;16.738;-14.648;2023-07-16T15:03:46;8.50;;;1.65;;
81725;SDS011;71135;16.738;-14.648;2023-07-16T15:06:16;6.97;;;1.50;;
81725;SDS011;71135;16.738;-14.648;2023-07-16T15:08:45;11.85;;;1.50;;
81725;SDS011;71135;16.738;-14.648;2023-07-16T15:11:14;8.98;;;2.00;;
81725;SDS011;71135;16.738;-14.648;2023-07-16T15:13:46;9.07;;;1.63;;
81725;SDS011;71135;16.738;-14.648;2023-07-16T15:16:15;8.25;;;1.55;;
81725;SDS011;71135;16.738;-14.648;2023-07-16T15:18:44;7.88;;;1.45;;
81725;SDS011;71135;16.738;-14.648;2023-07-16T15:21:13;5.78;;;1.58;;
81725;SDS011;71135;16.738;-14.648;2023-07-16T15:23:43;10.07;;;1.60;;
81725;SDS011;71135;16.738;-14.648;2023-07-16T15:26:13;6.35;;;1.35;;
81725;SDS011;71135;16.738;-14.648;2023-07-16T15:28:42;11.23;;;1.70;;
81725;SDS011;71135;16.738;-14.648;2023-07-16T15:31:14;8.40;;;1.50;;
81725;SDS011;71135;16.738;-14.648;2023-07-16T15:33:43;7.15;;;1.50;;
81725;SDS011;71135;16.738;-14.648;2023-07-16T15:36:12;6.95;;;1.80;;
81725;SDS011;71135;16.738;-14.648;2023-07-16T15:38:42;8.15;;;1.25;;
81725;SDS011;71135;16.738;-14.648;2023-07-16T15:41:11;11.88;;;1.50;;
81725;SDS011;71135;16.738;-14.648;2023-07-16T15:47:01;10.63;;;1.50;;
81725;SDS011;71135;16.738;-14.648;2023-07-16T15:49:37;10.55;;;1.50;;
81725;SDS011;71135;16.738;-14.648;2023-07-16T15:55:36;8.13;;;1.52;;
81725;SDS011;71135;16.738;-14.648;2023-07-16T16:11:11;9.80;;;2.30;;
81725;SDS011;71135;16.738;-14.648;2023-07-16T16:13:54;10.52;;;1.77;;
81725;SDS011;71135;16.738;-14.648;2023-07-16T16:23:53;9.23;;;1.50;;
81725;SDS011;71135;16.738;-14.648;2023-07-16T16:33:20;13.80;;;2.00;;
81725;SDS011;71135;16.738;-14.648;2023-07-16T16:42:41;7.35;;;1.40;;
81725;SDS011;71135;16.738;-14.648;2023-07-16T16:45:27;8.90;;;1.80;;
81725;SDS011;71135;16.738;-14.648;2023-07-16T16:48:12;8.80;;;1.70;;
81725;SDS011;71135;16.738;-14.648;2023-07-16T17:00:29;5.70;;;1.70;;
81725;SDS011;71135;16.738;-14.648;2023-07-16T17:03:04;13.30;;;2.17;;
81725;SDS011;71135;16.738;-14.648;2023-07-16T17:09:37;7.50;;;1.65;;
81725;SDS011;71135;16.738;-14.648;2023-07-16T18:05:47;7.32;;;1.40;;
81725;SDS011;71135;16.738;-14.648;2023-07-16T18:08:31;9.05;;;1.33;;
81725;SDS011;71135;16.738;-14.648;2023-07-16T18:11:25;6.07;;;1.15;;
81725;SDS011;71135;16.738;-14.648;2023-07-16T18:13:56;4.68;;;0.80;;
81725;SDS011;71135;16.738;-14.648;2023-07-16T18:16:36;3.45;;;0.70;;
81725;SDS011;71135;16.738;-14.648;2023-07-16T18:19:08;6.50;;;0.90;;
81725;SDS011;71135;16.738;-14.648;2023-07-16T18:24:12;6.60;;;0.95;;
81725;SDS011;71135;16.738;-14.648;2023-07-16T18:26:42;5.32;;;1.45;;
81725;SDS011;71135;16.738;-14.648;2023-07-16T18:29:14;4.40;;;0.90;;
81725;SDS011;71135;16.738;-14.648;2023-07-16T18:31:43;3.75;;;1.02;;
81725;SDS011;71135;16.738;-14.648;2023-07-16T18:34:26;3.42;;;0.88;;
81725;SDS011;71135;16.738;-14.648;2023-07-16T18:36:58;4.90;;;0.95;;